createdAt,value
2018-02-06T00:01:30.585Z,51.72
2018-02-06T00:03:58.042Z,52.18
2018-02-06T00:06:25.493Z,52.18
2018-02-06T00:08:52.934Z,51.69
2018-02-06T00:11:20.376Z,51.65
2018-02-06T00:13:48.817Z,51.54
2018-02-06T00:16:16.268Z,51.47
2018-02-06T00:18:43.697Z,50.98
2018-02-06T00:21:12.100Z,50.88
2018-02-06T00:23:39.561Z,50.83
2018-02-06T00:26:07.012Z,50.89
2018-02-06T00:28:34.456Z,51.32
2018-02-06T00:31:01.915Z,50.76
2018-02-06T00:33:29.370Z,50.84
2018-02-06T00:35:56.870Z,51.03
2018-02-06T00:38:24.338Z,51.59
2018-02-06T00:40:51.801Z,51.62
2018-02-06T00:43:19.357Z,51.35
2018-02-06T00:45:46.884Z,51.61
2018-02-06T00:48:14.329Z,51.72
2018-02-06T00:50:42.201Z,52.02
2018-02-06T00:53:09.661Z,51.17
2018-02-06T00:55:37.113Z,51.30
2018-02-06T00:58:05.498Z,52.29
2018-02-06T01:00:32.975Z,52.02
2018-02-06T01:03:00.421Z,52.73
2018-02-06T01:05:27.861Z,51.61
2018-02-06T01:07:55.342Z,52.58
2018-02-06T01:10:22.785Z,51.77
2018-02-06T01:12:50.261Z,51.93
2018-02-06T01:15:17.726Z,51.52
2018-02-06T01:17:45.181Z,51.44
2018-02-06T01:20:12.616Z,51.37
2018-02-06T01:22:40.078Z,51.53
2018-02-06T01:25:07.537Z,52.00
2018-02-06T01:27:34.982Z,51.73
2018-02-06T01:30:02.425Z,51.63
2018-02-06T01:32:29.885Z,50.99
2018-02-06T01:34:57.317Z,51.04
2018-02-06T01:37:24.779Z,51.65
2018-02-06T01:39:52.218Z,51.43
2018-02-06T01:42:19.673Z,51.43
2018-02-06T01:44:47.111Z,51.19
2018-02-06T01:47:14.593Z,51.09
2018-02-06T01:49:54.281Z,51.90
2018-02-06T01:52:21.745Z,51.75
2018-02-06T01:54:49.213Z,51.66
2018-02-06T01:57:16.669Z,51.57
2018-02-06T01:59:44.098Z,51.49
2018-02-06T02:02:12.464Z,51.49
2018-02-06T02:04:39.962Z,52.17
2018-02-06T02:07:07.486Z,52.31
2018-02-06T02:09:34.923Z,51.96
2018-02-06T02:12:02.400Z,51.74
2018-02-06T02:14:29.826Z,52.18
2018-02-06T02:16:57.324Z,52.27
2018-02-06T02:19:24.757Z,52.21
2018-02-06T02:21:52.257Z,52.84
2018-02-06T02:24:19.732Z,52.21
2018-02-06T02:26:47.170Z,52.93
2018-02-06T02:29:14.618Z,52.98
2018-02-06T02:31:42.593Z,52.17
2018-02-06T02:34:10.141Z,51.75
2018-02-06T02:36:37.722Z,51.55
2018-02-06T02:39:05.173Z,52.05
2018-02-06T02:41:32.614Z,51.72
2018-02-06T04:39:31.617Z,52.50
2018-02-06T04:41:59.137Z,52.98
2018-02-06T04:44:26.574Z,52.98
2018-02-06T04:46:54.137Z,53.04
2018-02-06T04:49:21.859Z,52.31
2018-02-06T04:51:49.572Z,51.97
2018-02-06T04:54:17.078Z,53.04
2018-02-06T04:56:44.613Z,53.08
2018-02-06T04:59:12.060Z,52.46
2018-02-06T05:01:39.495Z,52.44
2018-02-06T05:04:06.949Z,52.10
2018-02-06T05:06:34.405Z,52.44
2018-02-06T05:09:01.859Z,52.82
2018-02-06T05:11:34.040Z,53.28
2018-02-06T05:14:01.493Z,53.08
2018-02-06T05:16:28.925Z,52.85
2018-02-06T05:18:56.372Z,52.58
2018-02-06T05:21:23.805Z,52.27
2018-02-06T05:23:51.263Z,52.86
2018-02-06T05:26:18.712Z,53.25
2018-02-06T05:28:46.158Z,52.08
2018-02-06T05:31:13.597Z,51.80
2018-02-06T05:33:41.034Z,52.47
2018-02-06T05:36:08.491Z,52.38
2018-02-06T05:38:35.921Z,53.46
2018-02-06T05:41:03.392Z,53.14
2018-02-06T05:43:32.203Z,53.67
2018-02-06T05:45:59.836Z,53.45
2018-02-06T05:48:27.413Z,52.99
2018-02-06T05:50:55.018Z,52.78
2018-02-06T05:53:25.396Z,53.37
2018-02-06T05:55:52.889Z,53.36
2018-02-06T05:58:20.313Z,53.69
2018-02-06T06:00:47.775Z,52.77
2018-02-06T06:03:15.211Z,53.02
2018-02-06T06:05:43.620Z,52.63
2018-02-06T06:08:11.097Z,53.93
2018-02-06T06:10:38.564Z,52.99
2018-02-06T06:13:06.001Z,52.95
2018-02-06T06:15:33.462Z,53.11
2018-02-06T06:18:00.916Z,52.97
2018-02-06T06:20:28.432Z,52.57
2018-02-06T06:22:56.482Z,51.90
2018-02-06T06:25:23.923Z,52.34
2018-02-06T06:27:51.362Z,53.24
2018-02-06T06:30:18.810Z,53.20
2018-02-06T06:32:46.287Z,53.55
2018-02-06T06:35:13.718Z,53.50
2018-02-06T06:37:41.922Z,52.76
2018-02-06T06:40:09.505Z,52.95
2018-02-06T06:42:37.720Z,53.60
2018-02-06T06:45:05.181Z,52.38
2018-02-06T06:47:32.637Z,52.40
2018-02-06T06:50:00.080Z,52.88
2018-02-06T06:52:27.785Z,53.46
2018-02-06T06:54:55.272Z,53.55
2018-02-06T06:57:22.724Z,53.12
2018-02-06T06:59:50.149Z,52.92
2018-02-06T07:02:19.562Z,53.19
2018-02-06T07:04:47.062Z,53.87
2018-02-06T07:07:14.518Z,53.29
2018-02-06T07:09:41.979Z,52.69
2018-02-06T07:12:09.728Z,52.62
2018-02-06T07:14:41.177Z,54.36
2018-02-06T07:17:16.939Z,54.06
2018-02-06T07:19:46.712Z,52.90
2018-02-06T07:22:14.178Z,53.03
2018-02-06T07:24:41.653Z,53.25
2018-02-06T07:27:09.111Z,53.54
2018-02-06T07:29:36.532Z,52.91
2018-02-06T07:32:03.976Z,52.97
2018-02-06T07:34:32.470Z,52.46
2018-02-06T07:36:59.936Z,52.56
2018-02-06T07:39:27.360Z,53.35
2018-02-06T07:41:54.800Z,52.74
2018-02-06T07:44:22.245Z,52.91
2018-02-06T07:46:49.870Z,52.97
2018-02-06T07:49:17.310Z,52.55
2018-02-06T07:51:44.743Z,53.13
2018-02-06T07:54:12.196Z,52.76
2018-02-06T07:56:39.630Z,52.55
2018-02-06T07:59:07.073Z,52.58
2018-02-06T08:01:34.496Z,52.14
2018-02-06T08:04:01.945Z,53.08
2018-02-06T08:06:29.422Z,52.87
2018-02-06T08:08:56.848Z,52.68
2018-02-06T08:11:24.271Z,52.05
2018-02-06T08:13:51.746Z,52.20
2018-02-06T08:16:19.203Z,52.32
2018-02-06T08:18:46.728Z,51.86
2018-02-06T08:21:16.596Z,51.96
2018-02-06T08:23:47.184Z,51.97
2018-02-06T08:26:14.641Z,51.53
2018-02-06T08:28:43.422Z,52.04
2018-02-06T08:31:11.019Z,52.27
2018-02-06T08:33:38.547Z,51.52
2018-02-06T08:36:06.058Z,51.78
2018-02-06T08:38:33.556Z,52.00
2018-02-06T08:41:01.073Z,51.72
2018-02-06T08:43:28.608Z,51.18
2018-02-06T08:45:56.068Z,51.52
2018-02-06T08:48:23.681Z,52.13
2018-02-06T08:50:51.162Z,52.31
2018-02-06T08:53:18.618Z,52.17
2018-02-06T08:55:46.097Z,51.93
2018-02-06T08:58:14.352Z,51.83
2018-02-06T09:00:41.809Z,51.77
2018-02-06T09:03:09.288Z,51.78
2018-02-06T09:05:36.773Z,51.47
2018-02-06T09:08:04.240Z,51.50
2018-02-06T09:10:31.707Z,51.88
2018-02-06T09:12:59.476Z,51.92
2018-02-06T09:15:26.917Z,51.40
2018-02-06T09:17:54.453Z,51.46
2018-02-06T09:20:22.086Z,51.11
2018-02-06T09:22:49.612Z,51.11
2018-02-06T09:25:17.106Z,51.23
2018-02-06T09:27:44.714Z,51.12
2018-02-06T09:30:13.028Z,51.53
2018-02-06T09:32:40.497Z,51.34
2018-02-06T09:35:08.182Z,51.25
2018-02-06T09:37:35.815Z,50.60
2018-02-06T09:40:03.311Z,50.12
2018-02-06T09:42:30.838Z,51.03
2018-02-06T09:44:58.335Z,50.61
2018-02-06T09:47:25.913Z,51.18
2018-02-06T09:49:53.400Z,51.91
2018-02-06T09:52:21.231Z,50.54
2018-02-06T09:54:48.708Z,50.81
2018-02-06T09:57:17.690Z,50.52
2018-02-06T09:59:45.137Z,51.90
2018-02-06T10:02:12.656Z,51.53
2018-02-06T10:04:40.105Z,51.52
2018-02-06T10:07:07.716Z,51.55
2018-02-06T10:09:35.181Z,52.52
2018-02-06T10:12:02.755Z,52.41
2018-02-06T10:14:30.285Z,51.53
2018-02-06T10:16:57.914Z,51.52
2018-02-06T10:19:25.669Z,50.26
2018-02-06T10:21:53.340Z,50.22
2018-02-06T10:24:20.765Z,51.09
2018-02-06T10:26:48.292Z,50.65
2018-02-06T10:29:15.788Z,49.93
2018-02-06T10:31:43.228Z,50.50
2018-02-06T10:34:10.806Z,50.66
2018-02-06T10:36:38.296Z,49.66
2018-02-06T10:39:05.723Z,49.81
2018-02-06T10:41:33.486Z,49.41
2018-02-06T10:44:01.125Z,50.68
2018-02-06T10:46:28.619Z,50.42
2018-02-06T10:48:56.072Z,50.62
2018-02-06T10:51:23.534Z,49.89
2018-02-06T10:53:51.063Z,50.07
2018-02-06T10:56:18.524Z,48.96
2018-02-06T10:58:45.992Z,48.89
2018-02-06T11:01:13.534Z,49.17
2018-02-06T11:03:41.023Z,49.16
2018-02-06T11:06:08.472Z,49.58
2018-02-06T11:08:36.043Z,48.93
2018-02-06T11:11:03.486Z,48.87
2018-02-06T11:13:31.144Z,49.25
2018-02-06T11:15:58.634Z,48.21
2018-02-06T11:18:26.157Z,48.61
2018-02-06T11:20:53.618Z,48.34
2018-02-06T11:23:21.077Z,48.86
2018-02-06T11:25:48.504Z,48.18
2018-02-06T11:28:15.991Z,48.17
2018-02-06T11:30:43.586Z,47.86
2018-02-06T11:33:11.121Z,47.14
2018-02-06T11:35:38.613Z,47.52
2018-02-06T11:38:06.031Z,47.52
2018-02-06T11:40:33.630Z,47.42
2018-02-06T11:43:01.130Z,48.81
2018-02-06T11:45:28.795Z,48.24
2018-02-06T11:47:56.247Z,47.56
2018-02-06T11:50:23.720Z,46.59
2018-02-06T11:52:51.153Z,45.39
2018-02-06T11:55:18.594Z,45.09
2018-02-06T11:57:46.140Z,45.73
2018-02-06T12:00:13.717Z,44.96
2018-02-06T12:02:41.158Z,44.80
2018-02-06T12:05:08.587Z,44.56
2018-02-06T12:07:36.031Z,44.75
2018-02-06T12:10:03.614Z,45.32
2018-02-06T12:12:31.097Z,45.65
2018-02-06T12:14:58.548Z,43.72
2018-02-06T12:17:26.124Z,45.15
2018-02-06T12:19:53.600Z,45.75
2018-02-06T12:22:21.056Z,45.02
2018-02-06T12:24:48.592Z,45.03
2018-02-06T12:27:16.020Z,45.54
2018-02-06T12:29:43.466Z,45.20
2018-02-06T12:32:10.921Z,45.92
2018-02-06T12:34:38.505Z,46.70
2018-02-06T12:37:06.017Z,46.46
2018-02-06T12:39:33.668Z,46.67
2018-02-06T12:42:01.076Z,46.63
2018-02-06T12:44:28.726Z,46.51
2018-02-06T12:46:56.189Z,47.07
2018-02-06T12:49:23.670Z,46.98
2018-02-06T12:51:51.088Z,46.88
2018-02-06T12:54:18.758Z,47.71
2018-02-06T12:56:46.332Z,47.52
2018-02-06T12:59:13.824Z,47.43
2018-02-06T13:01:41.275Z,47.34
2018-02-06T13:04:08.725Z,47.50
2018-02-06T13:06:36.135Z,47.33
2018-02-06T13:09:03.665Z,47.70
2018-02-06T13:11:31.143Z,47.79
2018-02-06T13:13:58.630Z,47.69
2018-02-06T13:16:26.465Z,47.53
2018-02-06T13:18:53.935Z,48.09
2018-02-06T13:21:21.515Z,47.85
2018-02-06T13:23:48.959Z,48.02
2018-02-06T13:26:16.495Z,47.94
2018-02-06T13:28:44.034Z,47.97
2018-02-06T13:31:11.536Z,47.91
2018-02-06T13:33:39.073Z,48.12
2018-02-06T13:36:06.624Z,47.73
2018-02-06T13:38:34.140Z,47.21
2018-02-06T13:41:01.748Z,47.38
2018-02-06T13:43:29.297Z,46.52
2018-02-06T13:45:56.741Z,48.56
2018-02-06T13:48:24.325Z,48.65
2018-02-06T13:50:51.793Z,48.56
2018-02-06T13:53:19.285Z,48.52
2018-02-06T13:55:47.030Z,47.70
2018-02-06T13:58:15.505Z,47.90
2018-02-06T14:00:43.051Z,48.55
2018-02-06T14:03:10.724Z,48.67
2018-02-06T14:05:38.346Z,48.66
2018-02-06T14:08:05.905Z,48.36
2018-02-06T14:10:33.416Z,47.94
2018-02-06T14:13:00.885Z,47.81
2018-02-06T14:15:28.328Z,49.10
2018-02-06T14:17:55.772Z,48.31
2018-02-06T14:20:23.380Z,48.53
2018-02-06T14:22:50.826Z,49.02
2018-02-06T14:28:05.927Z,48.55
2018-02-06T14:30:33.899Z,48.59
2018-02-06T14:33:01.386Z,48.11
2018-02-06T14:35:28.810Z,48.44
2018-02-06T14:37:57.045Z,48.55
2018-02-06T14:40:24.463Z,48.09
2018-02-06T14:42:51.897Z,48.84
2018-02-06T14:45:19.417Z,48.40
2018-02-06T14:47:46.835Z,47.85
2018-02-06T14:50:14.305Z,48.14
2018-02-06T14:52:41.725Z,49.51
2018-02-06T14:55:09.196Z,49.26
2018-02-06T14:57:36.645Z,49.05
2018-02-06T15:00:04.090Z,48.90
2018-02-06T15:02:31.519Z,49.02
2018-02-06T15:04:58.987Z,49.02
2018-02-06T15:07:26.400Z,48.42
2018-02-06T15:09:53.937Z,48.65
2018-02-06T15:12:21.529Z,49.50
2018-02-06T15:14:48.978Z,49.92
2018-02-06T15:17:16.487Z,49.27
2018-02-06T15:19:43.920Z,48.90
2018-02-06T15:22:11.333Z,49.14
2018-02-06T15:24:38.933Z,49.64
2018-02-06T15:27:06.504Z,49.99
2018-02-06T15:29:33.997Z,49.42
2018-02-06T15:32:01.441Z,48.87
2018-02-06T15:34:29.211Z,48.85
2018-02-06T15:36:56.665Z,49.05
2018-02-06T15:39:24.105Z,49.13
2018-02-06T15:41:51.545Z,49.17
2018-02-06T15:44:18.960Z,49.49
2018-02-06T15:46:46.398Z,49.10
2018-02-06T15:49:13.949Z,49.27
2018-02-06T15:51:41.412Z,49.06
2018-02-06T15:54:08.872Z,49.62
2018-02-06T15:56:36.333Z,49.70
2018-02-06T15:59:03.775Z,49.09
2018-02-06T16:01:31.242Z,49.41
2018-02-06T16:03:58.678Z,49.37
2018-02-06T16:06:26.135Z,49.27
2018-02-06T16:08:53.568Z,49.07
2018-02-06T16:11:21.041Z,48.86
2018-02-06T16:13:48.521Z,49.18
2018-02-06T16:16:16.157Z,49.21
2018-02-06T16:18:43.761Z,49.36
2018-02-06T16:21:11.179Z,49.27
2018-02-06T16:23:38.646Z,48.73
2018-02-06T16:26:06.097Z,49.05
2018-02-06T16:28:33.536Z,49.33
2018-02-06T16:31:01.795Z,49.76
2018-02-06T16:33:29.244Z,49.91
2018-02-06T16:35:56.686Z,49.87
2018-02-06T16:38:24.132Z,49.61
2018-02-06T16:40:51.562Z,48.95
2018-02-06T16:43:19.029Z,49.08
2018-02-06T16:45:47.331Z,50.00
2018-02-06T16:48:14.776Z,49.78
2018-02-06T16:50:42.211Z,50.07
2018-02-06T16:53:09.656Z,49.43
2018-02-06T16:55:37.131Z,49.00
2018-02-06T16:58:04.632Z,49.65
2018-02-06T17:00:32.113Z,50.42
2018-02-06T17:02:59.628Z,49.31
2018-02-06T17:05:27.206Z,49.37
2018-02-06T17:07:54.643Z,49.86
2018-02-06T17:10:22.073Z,49.30
2018-02-06T17:12:49.513Z,49.92
2018-02-06T17:15:16.956Z,49.09
2018-02-06T17:17:44.447Z,49.64
2018-02-06T17:20:11.897Z,49.19
2018-02-06T17:22:39.351Z,49.35
2018-02-06T17:25:06.860Z,49.05
2018-02-06T17:27:34.294Z,49.52
2018-02-06T17:30:01.858Z,49.91
2018-02-06T17:32:31.510Z,49.19
2018-02-06T17:34:59.013Z,50.13
2018-02-06T17:37:26.466Z,50.06
2018-02-06T17:39:53.961Z,50.25
2018-02-06T17:42:21.430Z,50.75
2018-02-06T17:44:48.856Z,50.04
2018-02-06T17:47:16.304Z,49.74
2018-02-06T17:49:43.774Z,50.38
2018-02-06T17:52:11.278Z,50.49
2018-02-06T17:54:38.701Z,50.29
2018-02-06T17:57:06.174Z,49.74
2018-02-06T17:59:33.695Z,50.42
2018-02-06T18:02:01.252Z,50.85
2018-02-06T18:04:29.170Z,51.00
2018-02-06T18:06:56.747Z,51.10
2018-02-06T18:09:24.301Z,51.02
2018-02-06T18:11:51.852Z,51.37
2018-02-06T18:14:19.284Z,51.35
2018-02-06T18:16:46.745Z,50.61
2018-02-06T18:19:14.333Z,50.42
2018-02-06T18:21:41.824Z,50.61
2018-02-06T18:24:09.248Z,51.08
2018-02-06T18:26:36.804Z,51.72
2018-02-06T18:29:04.383Z,51.53
2018-02-06T18:31:31.910Z,51.97
2018-02-06T18:33:59.329Z,51.55
2018-02-06T18:36:26.811Z,52.71
2018-02-06T18:38:54.247Z,52.12
2018-02-06T18:41:21.830Z,52.41
2018-02-06T18:43:49.361Z,52.88
2018-02-06T18:46:16.897Z,52.25
2018-02-06T18:48:44.363Z,52.68
2018-02-06T18:51:11.784Z,52.16
2018-02-06T18:53:39.288Z,51.43
2018-02-06T18:56:06.780Z,51.75
2018-02-06T18:58:34.350Z,51.86
2018-02-06T19:01:01.789Z,52.22
2018-02-06T19:03:29.329Z,52.46
2018-02-06T19:05:56.803Z,53.03
2018-02-06T19:08:24.216Z,53.50
2018-02-06T19:10:51.773Z,52.81
2018-02-06T19:13:19.225Z,53.38
2018-02-06T19:15:47.918Z,53.08
2018-02-06T19:18:15.380Z,52.67
2018-02-06T19:20:42.847Z,52.87
2018-02-06T19:23:10.443Z,52.62
2018-02-06T19:25:37.956Z,53.26
2018-02-06T19:28:05.408Z,52.14
2018-02-06T19:30:32.907Z,51.87
2018-02-06T19:33:00.348Z,51.96
2018-02-06T19:35:27.779Z,52.19
2018-02-06T19:37:55.230Z,52.34
2018-02-06T19:40:22.663Z,52.86
2018-02-06T19:42:50.112Z,51.88
2018-02-06T19:45:17.646Z,51.61
2018-02-06T19:47:45.279Z,52.21
2018-02-06T19:50:12.730Z,52.16
2018-02-06T19:52:40.311Z,52.75
2018-02-06T19:55:07.747Z,52.49
2018-02-06T19:57:35.196Z,51.55
2018-02-06T20:00:02.638Z,51.34
2018-02-06T20:02:30.218Z,52.81
2018-02-06T20:04:57.746Z,52.75
2018-02-06T20:07:25.308Z,53.01
2018-02-06T20:09:52.762Z,52.80
2018-02-06T20:12:20.226Z,53.35
2018-02-06T20:14:47.861Z,52.77
2018-02-06T20:17:15.341Z,54.00
2018-02-06T20:19:42.765Z,52.63
2018-02-06T20:22:10.245Z,52.29
2018-02-06T20:24:37.814Z,53.47
2018-02-06T20:27:05.272Z,54.13
2018-02-06T20:29:32.756Z,52.97
2018-02-06T20:32:00.181Z,52.74
2018-02-06T20:34:27.751Z,52.62
2018-02-06T20:36:55.200Z,53.31
2018-02-06T20:39:22.856Z,53.01
2018-02-06T20:41:50.426Z,53.72
2018-02-06T20:44:17.893Z,54.43
2018-02-06T20:46:45.325Z,53.63
2018-02-06T20:49:12.780Z,53.48
2018-02-06T20:51:40.210Z,53.22
2018-02-06T20:54:07.787Z,53.48
2018-02-06T20:56:35.248Z,53.10
2018-02-06T20:59:02.732Z,53.41
2018-02-06T21:01:30.173Z,53.18
2018-02-06T21:03:57.737Z,52.33
2018-02-06T21:06:25.188Z,52.70
2018-02-06T21:08:52.667Z,53.37
2018-02-06T21:11:20.115Z,54.06
2018-02-06T21:13:47.548Z,53.80
2018-02-06T21:16:15.039Z,53.38
2018-02-06T21:18:42.502Z,54.18
2018-02-06T21:21:09.948Z,54.06
2018-02-06T21:23:37.380Z,53.52
2018-02-06T21:26:04.835Z,54.34
2018-02-06T21:28:32.677Z,54.08
2018-02-06T21:31:00.141Z,54.44
2018-02-06T21:33:27.872Z,54.30
2018-02-06T21:35:55.318Z,53.22
2018-02-06T21:38:22.745Z,54.63
2018-02-06T21:40:50.183Z,54.94
2018-02-06T21:43:17.628Z,55.31
2018-02-06T21:45:45.149Z,55.07
2018-02-06T21:48:12.601Z,54.61
2018-02-06T21:50:40.034Z,54.21
2018-02-06T21:53:07.504Z,54.51
2018-02-06T21:55:34.920Z,53.84
2018-02-06T21:58:02.398Z,53.81
2018-02-06T22:00:29.823Z,53.57
2018-02-06T22:02:57.289Z,55.14
2018-02-06T22:05:24.749Z,54.80
2018-02-06T22:07:52.354Z,56.83
2018-02-06T22:10:19.796Z,55.92
2018-02-06T22:12:47.449Z,55.55
2018-02-06T22:15:14.884Z,56.02
2018-02-06T22:17:42.328Z,55.27
2018-02-06T22:20:09.800Z,56.21
2018-02-06T22:22:38.145Z,56.98
2018-02-06T22:25:05.614Z,55.90
2018-02-06T22:27:33.070Z,55.44
2018-02-06T22:30:00.528Z,55.62
2018-02-06T22:32:27.973Z,55.38
2018-02-06T22:34:55.684Z,55.02
2018-02-06T22:37:23.237Z,55.26
2018-02-06T22:39:50.686Z,55.60
2018-02-06T22:42:18.124Z,56.45
2018-02-06T22:44:45.586Z,55.81
2018-02-06T22:47:13.049Z,54.81
2018-02-06T22:49:40.644Z,54.46
2018-02-06T22:52:08.095Z,54.28
2018-02-06T22:54:35.609Z,55.22
2018-02-06T22:57:03.071Z,55.73
2018-02-06T22:59:30.498Z,55.95
2018-02-06T23:01:57.940Z,54.51
2018-02-06T23:04:25.747Z,54.86
2018-02-06T23:06:53.217Z,54.48
2018-02-06T23:09:20.674Z,55.16
2018-02-06T23:11:48.113Z,55.56
2018-02-06T23:14:15.556Z,54.51
2018-02-06T23:16:42.999Z,55.34
2018-02-06T23:19:10.469Z,54.91
2018-02-06T23:21:38.161Z,54.64
2018-02-06T23:24:05.609Z,54.79
2018-02-06T23:26:33.051Z,54.15
2018-02-06T23:29:00.468Z,55.73
2018-02-06T23:31:27.910Z,56.10
2018-02-06T23:33:55.328Z,55.88
2018-02-06T23:36:22.782Z,55.22
2018-02-06T23:38:50.212Z,55.21
2018-02-06T23:41:18.124Z,54.43
2018-02-06T23:43:45.673Z,54.74
2018-02-06T23:46:13.135Z,54.66
2018-02-06T23:48:40.641Z,55.41
2018-02-06T23:51:08.184Z,54.98
2018-02-06T23:53:35.636Z,54.75
2018-02-06T23:56:03.133Z,56.06
2018-02-06T23:58:30.623Z,55.15
